Time;durP1;ratioP1;P1;durP2;ratioP2;P2;SDS_P1;SDS_P2;PMS_P1;PMS_P2;Temp;Humidity;BMP_temperature;BMP_pressure;BME280_temperature;BME280_humidity;BME280_pressure;Samples;Min_cycle;Max_cycle;Signal;HPM_P1;HPM_P2
2023/12/25 00:01:37;;;;;;;1.00;0.90;;;;;;;17.65;57.65;100466.31;5033392;28;20036;-58
2023/12/25 00:04:03;;;;;;;0.38;0.38;;;;;;;17.62;58.04;100455.84;5033135;28;20033;-58
2023/12/25 00:06:29;;;;;;;2.95;1.08;;;;;;;17.63;58.01;100476.50;5035592;28;20499;-58
2023/12/25 00:08:55;;;;;;;3.67;0.80;;;;;;;17.60;57.36;100467.88;5022831;28;20071;-58
2023/12/25 00:11:20;;;;;;;1.85;0.77;;;;;;;17.58;57.76;100475.38;5024776;28;20030;-58
2023/12/25 00:13:47;;;;;;;2.00;0.50;;;;;;;17.56;58.67;100472.00;5024831;28;20045;-58
2023/12/25 00:16:12;;;;;;;0.93;0.57;;;;;;;17.55;58.09;100465.75;5022835;28;20097;-58
2023/12/25 00:18:38;;;;;;;4.28;0.80;;;;;;;17.56;57.73;100467.41;5021991;28;20450;-58
2023/12/25 00:21:03;;;;;;;2.22;0.65;;;;;;;17.54;57.67;100469.47;5022355;28;20014;-58
2023/12/25 00:23:29;;;;;;;0.77;0.40;;;;;;;17.57;57.90;100477.22;5023265;28;20024;-58
2023/12/25 00:25:54;;;;;;;3.03;0.52;;;;;;;17.58;58.17;100461.81;5005998;28;20100;-59
2023/12/25 00:28:20;;;;;;;0.35;0.35;;;;;;;17.59;57.94;100461.63;5024537;28;20072;-58
2023/12/25 00:30:45;;;;;;;0.98;0.30;;;;;;;17.57;57.65;100471.81;5021160;28;20105;-58
2023/12/25 00:33:11;;;;;;;0.20;0.20;;;;;;;17.62;58.30;100479.38;5023098;28;20052;-58
2023/12/25 00:35:36;;;;;;;4.07;0.65;;;;;;;17.62;58.44;100471.25;5021607;28;20029;-58
2023/12/25 00:38:01;;;;;;;1.42;0.60;;;;;;;17.63;58.05;100468.38;5029870;28;20029;-58
2023/12/25 00:40:27;;;;;;;2.35;0.60;;;;;;;17.64;57.59;100472.78;5033604;28;20461;-58
2023/12/25 00:42:52;;;;;;;1.95;0.50;;;;;;;17.61;58.18;100470.44;5016074;28;20025;-58
2023/12/25 00:45:17;;;;;;;0.30;0.30;;;;;;;17.63;57.44;100468.38;5015886;28;20504;-58
2023/12/25 00:47:43;;;;;;;0.55;0.55;;;;;;;17.62;58.16;100473.97;5033876;28;20389;-58
2023/12/25 00:50:08;;;;;;;1.45;0.65;;;;;;;17.61;58.23;100478.56;5032720;28;20029;-58
2023/12/25 00:52:34;;;;;;;2.33;0.75;;;;;;;17.62;57.91;100466.69;5032659;28;20508;-58
2023/12/25 00:55:00;;;;;;;2.40;0.55;;;;;;;17.64;57.77;100475.50;5031820;28;20033;-58
2023/12/25 00:57:29;;;;;;;1.02;0.57;;;;;;;17.66;58.06;100481.56;5032572;28;20041;-58
2023/12/25 00:59:55;;;;;;;5.22;0.70;;;;;;;17.68;57.88;100475.94;5015338;28;20029;-58
2023/12/25 01:02:21;;;;;;;2.53;0.70;;;;;;;17.68;57.89;100476.78;5032071;28;20120;-58
2023/12/25 01:04:46;;;;;;;1.88;0.50;;;;;;;17.70;57.53;100469.31;5033327;28;20512;-58
2023/12/25 01:07:11;;;;;;;2.13;0.80;;;;;;;17.72;57.80;100477.28;5033025;28;20091;-58
2023/12/25 01:09:40;;;;;;;5.32;1.52;;;;;;;17.74;57.77;100467.94;5033552;28;20431;-58
2023/12/25 01:12:06;;;;;;;5.35;1.13;;;;;;;17.73;57.92;100473.50;5032181;28;20033;-57
2023/12/25 01:14:31;;;;;;;0.95;0.70;;;;;;;17.72;57.67;100478.13;5033214;28;20026;-58
2023/12/25 01:16:57;;;;;;;0.70;0.50;;;;;;;17.72;57.92;100482.69;5032888;28;20060;-57
2023/12/25 01:19:22;;;;;;;0.43;0.43;;;;;;;17.72;57.69;100466.44;5033022;28;20025;-59
2023/12/25 01:21:48;;;;;;;1.30;0.40;;;;;;;17.71;58.05;100481.84;5032020;28;20108;-57
2023/12/25 01:24:14;;;;;;;2.58;1.02;;;;;;;17.73;57.71;100474.38;5033139;28;20112;-60
2023/12/25 01:26:39;;;;;;;2.38;0.47;;;;;;;17.76;58.25;100489.41;5032817;28;20444;-57
2023/12/25 01:29:04;;;;;;;2.50;0.75;;;;;;;17.81;57.42;100493.25;5031770;28;20123;-58
2023/12/25 01:31:30;;;;;;;1.17;0.45;;;;;;;17.80;57.62;100486.16;5033326;28;20033;-58
2023/12/25 01:33:55;;;;;;;0.63;0.40;;;;;;;17.84;57.89;100484.75;5032898;28;20041;-58
2023/12/25 01:36:22;;;;;;;2.08;0.40;;;;;;;17.84;57.63;100487.47;5025729;28;20045;-57
2023/12/25 01:38:47;;;;;;;4.13;0.63;;;;;;;17.86;57.84;100484.59;5031649;28;20397;-58
2023/12/25 01:41:13;;;;;;;2.17;0.43;;;;;;;17.86;57.81;100498.13;5031671;28;20494;-58
2023/12/25 01:43:38;;;;;;;1.55;1.10;;;;;;;17.88;57.92;100498.78;5032694;28;20463;-58
2023/12/25 01:46:03;;;;;;;0.63;0.35;;;;;;;17.91;57.13;100506.53;5031528;28;20033;-58
2023/12/25 01:48:29;;;;;;;1.15;0.32;;;;;;;17.92;57.37;100511.78;5031716;28;20037;-59
2023/12/25 01:51:00;;;;;;;1.75;0.32;;;;;;;17.93;57.51;100501.78;5033650;28;20022;-59
2023/12/25 01:53:26;;;;;;;1.77;0.43;;;;;;;17.91;57.40;100499.25;5032714;28;20072;-59
2023/12/25 01:55:51;;;;;;;1.05;0.32;;;;;;;17.92;57.03;100500.13;5033919;28;20100;-65
2023/12/25 01:58:16;;;;;;;1.48;0.63;;;;;;;17.90;57.44;100505.69;5030960;28;20049;-58
2023/12/25 02:00:42;;;;;;;0.95;0.30;;;;;;;17.89;57.59;100506.75;5015066;28;20471;-58
2023/12/25 02:03:07;;;;;;;0.30;0.30;;;;;;;17.92;57.82;100506.34;5032648;28;20040;-58
2023/12/25 02:05:32;;;;;;;1.20;0.73;;;;;;;17.91;57.26;100510.09;5031294;28;20034;-58
2023/12/25 02:07:58;;;;;;;2.38;0.32;;;;;;;17.90;57.45;100513.81;5031273;28;20504;-58
2023/12/25 02:10:27;;;;;;;1.67;0.30;;;;;;;17.92;57.93;100522.59;5032781;28;20037;-58
2023/12/25 02:12:53;;;;;;;0.20;0.20;;;;;;;17.91;57.73;100526.38;5014881;28;20393;-58
2023/12/25 02:15:19;;;;;;;0.35;0.20;;;;;;;17.88;57.63;100518.59;5032790;28;20492;-58
2023/12/25 02:17:45;;;;;;;0.20;0.15;;;;;;;17.88;57.46;100515.88;5014980;28;20493;-58
2023/12/25 02:20:11;;;;;;;3.83;0.73;;;;;;;17.88;57.42;100521.31;5032435;28;20025;-57
2023/12/25 02:22:37;;;;;;;3.55;0.40;;;;;;;17.86;57.53;100522.53;5031446;28;20052;-58
2023/12/25 02:25:07;;;;;;;1.65;0.45;;;;;;;17.82;57.81;100519.31;5031252;28;20390;-57
2023/12/25 02:27:33;;;;;;;0.88;0.20;;;;;;;17.80;58.07;100518.69;5032415;28;20030;-57
2023/12/25 02:29:58;;;;;;;2.65;0.45;;;;;;;17.77;57.85;100529.88;5034303;28;20041;-58
2023/12/25 02:32:24;;;;;;;2.70;0.35;;;;;;;17.76;57.36;100517.34;5036131;28;20037;-58
2023/12/25 02:34:49;;;;;;;1.27;0.50;;;;;;;17.73;57.42;100523.13;5036223;28;20060;-57
2023/12/25 02:37:14;;;;;;;1.25;0.20;;;;;;;17.69;58.10;100521.81;5014815;28;20509;-58
2023/12/25 02:39:40;;;;;;;0.98;0.35;;;;;;;17.67;57.96;100523.84;5016380;28;20402;-57
2023/12/25 02:42:05;;;;;;;0.95;0.35;;;;;;;17.68;58.19;100517.44;5014911;28;20106;-58
2023/12/25 02:44:31;;;;;;;1.38;0.60;;;;;;;17.66;57.48;100527.59;5016235;28;20375;-58
2023/12/25 02:46:56;;;;;;;2.63;0.30;;;;;;;17.67;58.34;100513.03;5014819;28;20117;-57
2023/12/25 02:49:22;;;;;;;2.80;0.38;;;;;;;17.68;57.82;100509.28;5014818;28;20070;-58
2023/12/25 02:51:48;;;;;;;1.33;0.47;;;;;;;17.70;58.05;100520.78;5014785;28;20037;-57
2023/12/25 02:54:13;;;;;;;0.20;0.20;;;;;;;17.70;57.60;100517.25;5031121;28;20042;-58
2023/12/25 02:56:39;;;;;;;0.30;0.30;;;;;;;17.71;57.58;100519.78;5015246;28;20109;-58
2023/12/25 02:59:05;;;;;;;0.98;0.60;;;;;;;17.71;58.16;100517.06;5016208;28;20486;-58
2023/12/25 03:01:30;;;;;;;2.13;0.40;;;;;;;17.77;57.81;100535.31;5014917;28;20042;-58
2023/12/25 03:03:55;;;;;;;0.98;0.50;;;;;;;17.78;57.95;100531.53;5015940;28;20058;-58
2023/12/25 03:06:21;;;;;;;3.53;0.40;;;;;;;17.79;57.69;100533.25;5015662;28;20153;-57
2023/12/25 03:08:47;;;;;;;0.20;0.20;;;;;;;17.81;57.38;100533.06;5031135;28;20026;-58
2023/12/25 03:11:12;;;;;;;0.55;0.30;;;;;;;17.83;57.78;100529.16;5015555;28;20497;-58
2023/12/25 03:13:38;;;;;;;2.85;0.43;;;;;;;17.82;57.63;100527.47;5014420;28;20030;-58
2023/12/25 03:16:08;;;;;;;0.55;0.30;;;;;;;17.87;57.67;100535.03;5015798;28;20033;-58
2023/12/25 03:18:34;;;;;;;0.98;0.32;;;;;;;17.88;57.42;100542.13;4998484;28;20037;-58
2023/12/25 03:20:59;;;;;;;2.55;0.65;;;;;;;17.88;57.67;100526.72;5014347;28;20033;-58
2023/12/25 03:23:25;;;;;;;0.22;0.20;;;;;;;17.87;57.81;100530.44;5014427;28;20053;-58
2023/12/25 03:25:50;;;;;;;0.70;0.13;;;;;;;17.86;57.39;100542.34;5014154;28;20058;-58
2023/12/25 03:28:15;;;;;;;3.40;1.05;;;;;;;17.85;57.43;100543.34;5014146;28;20409;-58
2023/12/25 03:30:41;;;;;;;0.52;0.20;;;;;;;17.87;57.53;100537.72;5014308;28;20113;-58
2023/12/25 03:33:07;;;;;;;0.35;0.08;;;;;;;17.87;57.59;100535.88;5015229;28;20081;-58
2023/12/25 03:35:33;;;;;;;1.48;0.22;;;;;;;17.89;57.42;100541.97;5014108;28;20524;-58
2023/12/25 03:37:58;;;;;;;1.58;0.22;;;;;;;17.91;57.57;100547.19;5015261;28;20042;-58
2023/12/25 03:40:24;;;;;;;0.30;0.30;;;;;;;17.93;57.50;100542.44;5015072;28;20048;-58
2023/12/25 03:42:50;;;;;;;0.20;0.10;;;;;;;17.92;57.35;100538.06;5015052;28;20030;-57
2023/12/25 03:45:15;;;;;;;0.52;0.17;;;;;;;17.92;57.44;100549.72;5013670;28;20034;-58
2023/12/25 03:47:40;;;;;;;0.10;0.10;;;;;;;17.91;57.25;100536.34;5014848;28;20386;-57
2023/12/25 03:50:06;;;;;;;0.70;0.20;;;;;;;17.98;57.60;100527.28;5015050;28;20096;-57
2023/12/25 03:52:31;;;;;;;0.10;0.08;;;;;;;17.94;57.51;100520.59;5013611;28;20140;-58
2023/12/25 03:54:57;;;;;;;1.08;0.20;;;;;;;17.98;57.43;100508.31;5013970;28;20066;-60
2023/12/25 03:57:22;;;;;;;0.10;0.10;;;;;;;17.98;57.31;100526.44;5030041;28;20049;-57
2023/12/25 03:59:47;;;;;;;0.25;0.20;;;;;;;17.97;57.11;100524.78;5013717;28;20041;-60
2023/12/25 04:02:13;;;;;;;0.00;0.00;;;;;;;17.98;57.35;100521.88;5014746;28;20034;-59
2023/12/25 04:04:41;;;;;;;0.40;0.20;;;;;;;17.96;57.21;100540.19;5014666;28;20109;-59
2023/12/25 04:07:06;;;;;;;0.88;0.20;;;;;;;17.96;57.39;100534.78;5013333;28;20081;-57
2023/12/25 04:09:32;;;;;;;0.40;0.30;;;;;;;17.99;57.32;100556.09;5013368;28;20493;-60
2023/12/25 04:11:57;;;;;;;2.05;0.40;;;;;;;18.01;57.32;100554.03;5013174;28;20425;-60
2023/12/25 04:14:22;;;;;;;2.83;0.43;;;;;;;18.03;57.05;100548.44;5014407;28;20081;-57
2023/12/25 04:16:48;;;;;;;0.40;0.10;;;;;;;18.05;56.86;100543.69;5013234;28;20042;-60
2023/12/25 04:19:13;;;;;;;0.50;0.10;;;;;;;18.06;57.01;100555.38;5014511;28;20630;-57
2023/12/25 04:21:38;;;;;;;0.82;0.10;;;;;;;18.03;56.88;100535.72;5013108;28;20497;-60
2023/12/25 04:24:04;;;;;;;2.60;0.20;;;;;;;18.02;56.93;100531.34;5013211;28;20034;-59
2023/12/25 04:26:29;;;;;;;1.63;0.20;;;;;;;18.04;56.97;100540.13;5014322;28;20038;-57
2023/12/25 04:28:56;;;;;;;0.10;0.10;;;;;;;18.05;56.22;100538.25;5013001;28;20462;-59
2023/12/25 04:31:22;;;;;;;0.95;0.10;;;;;;;18.02;57.15;100547.59;5013035;28;20081;-59
2023/12/25 04:33:47;;;;;;;0.45;0.10;;;;;;;17.97;55.97;100533.75;5012967;28;20061;-59
2023/12/25 04:36:12;;;;;;;0.10;0.00;;;;;;;17.99;56.76;100547.97;5014351;28;20053;-59
2023/12/25 04:38:38;;;;;;;0.10;0.00;;;;;;;17.99;57.60;100529.00;5029117;28;20405;-59
2023/12/25 04:41:04;;;;;;;0.20;0.10;;;;;;;17.99;57.13;100534.41;5012854;28;20112;-59
2023/12/25 04:43:29;;;;;;;1.95;0.13;;;;;;;17.97;56.48;100539.19;5012578;28;20568;-59
2023/12/25 04:45:54;;;;;;;0.30;0.10;;;;;;;17.93;57.28;100540.56;5012604;28;20034;-60
2023/12/25 04:48:20;;;;;;;0.65;0.10;;;;;;;17.94;56.74;100547.69;5013956;28;20524;-57
2023/12/25 04:50:48;;;;;;;0.73;0.20;;;;;;;17.96;56.87;100539.34;5012316;28;20060;-57
2023/12/25 04:53:14;;;;;;;2.47;0.13;;;;;;;17.96;56.97;100540.19;5013837;28;20528;-58
2023/12/25 04:55:40;;;;;;;0.38;0.20;;;;;;;17.96;56.86;100542.91;5029184;28;20030;-59
2023/12/25 04:58:05;;;;;;;0.65;0.10;;;;;;;17.93;56.75;100527.00;5013604;28;20034;-57
2023/12/25 05:00:31;;;;;;;0.13;0.10;;;;;;;17.92;57.08;100543.47;5013857;28;20114;-57
2023/12/25 05:02:58;;;;;;;0.20;0.20;;;;;;;17.91;56.77;100537.22;5012170;28;20141;-58
2023/12/25 05:05:24;;;;;;;0.40;0.20;;;;;;;17.90;56.47;100524.66;5028976;28;20041;-58
2023/12/25 05:07:49;;;;;;;0.10;0.10;;;;;;;17.89;57.00;100524.88;5013774;28;20042;-57
2023/12/25 05:10:14;;;;;;;2.38;0.20;;;;;;;17.85;56.43;100524.38;5013561;28;20374;-58
2023/12/25 05:12:40;;;;;;;0.40;0.25;;;;;;;17.86;56.88;100522.53;5005889;28;20041;-58
2023/12/25 05:15:07;;;;;;;0.50;0.20;;;;;;;17.85;56.24;100524.38;5014762;28;20468;-58
2023/12/25 05:17:32;;;;;;;1.25;0.55;;;;;;;17.85;57.27;100537.94;5013500;28;20030;-58
2023/12/25 05:19:58;;;;;;;0.65;0.35;;;;;;;17.79;56.75;100535.94;5013552;28;20037;-58
2023/12/25 05:22:23;;;;;;;0.03;0.03;;;;;;;17.79;57.12;100532.41;5012143;28;20030;-58
2023/12/25 05:24:48;;;;;;;1.38;0.40;;;;;;;17.79;57.30;100530.53;5011768;28;20095;-58
2023/12/25 05:27:14;;;;;;;1.88;0.38;;;;;;;17.79;57.46;100524.25;5011884;28;20069;-58
2023/12/25 05:29:39;;;;;;;0.38;0.20;;;;;;;17.79;56.98;100516.97;5013272;28;20034;-60
2023/12/25 05:32:05;;;;;;;0.70;0.22;;;;;;;17.79;57.33;100516.13;5012195;28;20033;-59
2023/12/25 05:34:30;;;;;;;0.98;0.20;;;;;;;17.77;57.27;100507.34;5012246;28;20117;-58
2023/12/25 05:36:57;;;;;;;0.20;0.20;;;;;;;17.78;57.42;100509.06;5011950;28;20117;-58
2023/12/25 05:39:24;;;;;;;0.20;0.10;;;;;;;17.78;57.23;100503.63;5011983;28;20563;-59
2023/12/25 05:41:50;;;;;;;0.75;0.30;;;;;;;17.77;56.96;100489.25;5012161;28;20038;-58
2023/12/25 05:44:16;;;;;;;0.77;0.17;;;;;;;17.80;56.95;100497.00;5011948;28;20038;-58
2023/12/25 05:46:41;;;;;;;1.15;0.40;;;;;;;17.82;56.63;100507.66;5011778;28;20045;-58
2023/12/25 05:49:06;;;;;;;2.45;0.30;;;;;;;17.80;57.20;100507.00;5013220;28;20044;-58
2023/12/25 05:51:32;;;;;;;0.15;0.10;;;;;;;17.80;57.20;100505.13;5011681;28;20556;-58
2023/12/25 05:53:57;;;;;;;0.45;0.30;;;;;;;17.79;56.96;100505.28;5012230;28;20058;-58
2023/12/25 05:56:23;;;;;;;1.15;1.05;;;;;;;17.80;57.46;100507.84;5012129;28;20544;-58
2023/12/25 05:58:48;;;;;;;0.47;0.20;;;;;;;17.78;57.29;100509.06;5027328;28;20057;-59
2023/12/25 06:01:14;;;;;;;1.65;0.43;;;;;;;17.72;56.94;100510.63;5027095;28;20044;-59
2023/12/25 06:03:40;;;;;;;2.28;0.20;;;;;;;17.73;57.36;100519.56;5013284;28;20045;-59
2023/12/25 06:06:05;;;;;;;1.85;0.20;;;;;;;17.70;57.14;100518.06;5014128;28;20054;-59
2023/12/25 06:08:31;;;;;;;0.75;0.20;;;;;;;17.70;57.01;100523.50;5014196;28;20069;-59
2023/12/25 06:10:57;;;;;;;0.32;0.10;;;;;;;17.66;57.43;100521.34;5015579;28;20147;-59
2023/12/25 06:13:22;;;;;;;0.35;0.20;;;;;;;17.64;57.37;100509.84;5015428;28;20125;-59
2023/12/25 06:15:48;;;;;;;1.02;0.20;;;;;;;17.63;57.01;100516.28;5015396;28;20030;-59
2023/12/25 06:18:14;;;;;;;1.30;0.25;;;;;;;17.62;57.39;100520.00;5015365;28;20045;-59
2023/12/25 06:20:40;;;;;;;0.35;0.15;;;;;;;17.59;57.13;100521.22;5014088;28;20034;-59
2023/12/25 06:23:05;;;;;;;3.78;0.50;;;;;;;17.57;57.72;100523.28;5015334;28;20038;-59
2023/12/25 06:25:31;;;;;;;0.50;0.35;;;;;;;17.53;57.31;100521.94;5030515;28;20030;-58
2023/12/25 06:27:56;;;;;;;0.38;0.10;;;;;;;17.48;57.23;100518.91;5030543;28;20037;-59
2023/12/25 06:30:22;;;;;;;1.65;0.10;;;;;;;17.50;58.11;100521.44;5015901;28;20044;-58
2023/12/25 06:32:47;;;;;;;1.10;0.40;;;;;;;17.50;57.71;100508.75;5031842;28;20579;-59
2023/12/25 06:35:13;;;;;;;0.40;0.20;;;;;;;17.52;57.10;100531.06;5021653;28;20033;-60
2023/12/25 06:37:38;;;;;;;0.28;0.10;;;;;;;17.55;57.75;100514.50;5036389;28;20037;-59
2023/12/25 06:40:05;;;;;;;2.83;0.28;;;;;;;17.59;57.44;100506.84;5016745;28;20505;-59
2023/12/25 06:42:30;;;;;;;1.23;0.08;;;;;;;17.59;57.09;100509.56;5033974;28;20041;-59
2023/12/25 06:44:56;;;;;;;0.25;0.20;;;;;;;17.61;57.29;100532.72;5033503;28;20034;-59
2023/12/25 06:47:21;;;;;;;2.40;0.32;;;;;;;17.60;57.66;100528.31;5033366;28;20042;-58
2023/12/25 06:49:46;;;;;;;0.55;0.17;;;;;;;17.60;56.96;100520.22;5033598;28;20108;-59
2023/12/25 06:52:12;;;;;;;0.73;0.10;;;;;;;17.59;57.21;100514.97;4986571;28;1324815;-58
2023/12/25 06:54:38;;;;;;;0.55;0.10;;;;;;;17.58;57.26;100524.97;5018309;28;20029;-58
2023/12/25 06:57:04;;;;;;;0.73;0.30;;;;;;;17.57;56.99;100523.28;5034879;28;20493;-59
2023/12/25 06:59:30;;;;;;;0.10;0.10;;;;;;;17.60;57.25;100516.66;5034545;28;20034;-59
2023/12/25 07:01:55;;;;;;;0.60;0.20;;;;;;;17.59;57.88;100514.97;5034022;28;20107;-59
2023/12/25 07:04:22;;;;;;;0.20;0.15;;;;;;;17.61;57.52;100534.59;5034201;28;20056;-59
2023/12/25 07:06:47;;;;;;;1.02;0.20;;;;;;;17.62;57.30;100531.69;5035495;28;20493;-58
2023/12/25 07:09:14;;;;;;;0.20;0.10;;;;;;;17.65;57.49;100514.22;5034137;28;20033;-58
2023/12/25 07:11:40;;;;;;;1.88;0.13;;;;;;;17.66;57.27;100522.19;5035616;28;20043;-60
2023/12/25 07:14:07;;;;;;;0.00;0.00;;;;;;;17.68;57.23;100530.97;5033980;28;20539;-58
2023/12/25 07:16:32;;;;;;;0.95;0.10;;;;;;;17.71;57.18;100519.78;5034453;28;20021;-58
2023/12/25 07:18:58;;;;;;;0.20;0.20;;;;;;;17.71;57.53;100525.19;5035666;28;20125;-58
2023/12/25 07:21:23;;;;;;;0.35;0.10;;;;;;;17.71;57.32;100529.75;5035498;28;20021;-58
2023/12/25 07:23:49;;;;;;;0.25;0.00;;;;;;;17.76;57.37;100539.03;5035600;28;20489;-58
2023/12/25 07:26:18;;;;;;;0.10;0.08;;;;;;;17.77;57.42;100551.56;5033928;28;20084;-58
2023/12/25 07:28:44;;;;;;;0.90;0.05;;;;;;;17.79;57.43;100554.91;5034017;28;20396;-58
2023/12/25 07:31:10;;;;;;;1.23;0.30;;;;;;;17.82;56.72;100543.72;5035417;28;20018;-58
2023/12/25 07:33:36;;;;;;;0.00;0.00;;;;;;;17.82;57.17;100543.72;5033846;28;20084;-58
2023/12/25 07:36:02;;;;;;;0.35;0.10;;;;;;;17.82;57.12;100549.13;5034916;28;20026;-58
2023/12/25 07:38:28;;;;;;;0.82;0.10;;;;;;;17.85;57.11;100547.94;5032731;28;20052;-58
2023/12/25 07:40:53;;;;;;;0.20;0.20;;;;;;;17.85;57.00;100537.94;5033646;28;20053;-58
2023/12/25 07:43:18;;;;;;;0.20;0.13;;;;;;;17.87;57.11;100530.44;5033598;28;20469;-58
2023/12/25 07:45:44;;;;;;;1.08;0.30;;;;;;;17.88;56.90;100548.41;5033522;28;20025;-59
2023/12/25 07:48:10;;;;;;;0.10;0.10;;;;;;;17.91;56.68;100563.47;5033615;28;20028;-58
2023/12/25 07:50:35;;;;;;;1.52;0.15;;;;;;;17.91;56.99;100552.63;5034889;28;20036;-58
2023/12/25 07:53:00;;;;;;;0.03;0.03;;;;;;;17.90;56.63;100550.91;5034459;28;20073;-58
2023/12/25 07:55:26;;;;;;;0.95;0.10;;;;;;;17.92;56.82;100560.56;5033593;28;20022;-58
2023/12/25 07:57:52;;;;;;;0.52;0.10;;;;;;;17.94;57.00;100563.09;5033708;28;20035;-58
2023/12/25 08:00:17;;;;;;;0.10;0.10;;;;;;;17.94;57.28;100563.09;5034757;28;20017;-58
2023/12/25 08:02:43;;;;;;;0.10;0.10;;;;;;;17.94;56.99;100558.53;5032095;28;20034;-57
2023/12/25 08:05:09;;;;;;;1.35;0.00;;;;;;;17.96;57.14;100555.63;5027466;28;20022;-58
2023/12/25 08:07:35;;;;;;;1.23;0.10;;;;;;;17.95;56.87;100560.19;5033436;28;20049;-58
2023/12/25 08:10:01;;;;;;;0.10;0.10;;;;;;;17.96;56.11;100571.88;5033280;28;20057;-57
2023/12/25 08:12:26;;;;;;;0.10;0.10;;;;;;;17.95;56.72;100565.59;5034583;28;20064;-58
2023/12/25 08:14:51;;;;;;;0.10;0.10;;;;;;;17.98;56.58;100569.81;5034389;28;20398;-57
2023/12/25 08:17:17;;;;;;;0.17;0.10;;;;;;;17.96;56.61;100561.88;5016787;28;20033;-58
2023/12/25 08:19:43;;;;;;;0.35;0.30;;;;;;;17.97;56.86;100569.00;5034199;28;20026;-58
2023/12/25 08:22:09;;;;;;;1.35;0.68;;;;;;;17.98;56.86;100575.22;5031743;28;20084;-58
2023/12/25 08:24:37;;;;;;;1.92;0.57;;;;;;;17.95;56.98;100573.75;5032956;28;20446;-58
2023/12/25 08:27:03;;;;;;;0.20;0.20;;;;;;;17.97;56.93;100581.69;5033406;28;20470;-61
2023/12/25 08:29:29;;;;;;;0.30;0.00;;;;;;;17.96;56.60;100580.84;5034091;28;20037;-58
2023/12/25 08:31:55;;;;;;;0.38;0.10;;;;;;;17.98;56.98;100596.91;5016042;28;20025;-58
2023/12/25 08:34:23;;;;;;;1.05;0.13;;;;;;;17.98;56.98;100597.78;5032731;28;20033;-58
2023/12/25 08:36:48;;;;;;;0.10;0.10;;;;;;;17.94;56.82;100591.03;5034205;28;20034;-58
2023/12/25 08:39:14;;;;;;;0.20;0.20;;;;;;;17.96;57.14;100588.13;5029263;28;20037;-58
2023/12/25 08:41:40;;;;;;;0.03;0.03;;;;;;;17.96;56.64;100594.41;5044741;28;20060;-58
2023/12/25 08:44:06;;;;;;;0.10;0.10;;;;;;;18.01;57.09;100604.69;5033878;28;20036;-58
2023/12/25 08:46:31;;;;;;;0.20;0.10;;;;;;;18.02;56.99;100599.09;5016316;28;20030;-58
2023/12/25 08:48:57;;;;;;;0.10;0.10;;;;;;;18.04;56.69;100613.31;5033892;28;20033;-57
2023/12/25 08:51:25;;;;;;;0.75;0.20;;;;;;;18.07;56.67;100616.66;5032059;28;20611;-58
2023/12/25 08:53:50;;;;;;;0.00;0.00;;;;;;;18.08;57.48;100623.78;5033343;28;20038;-57
2023/12/25 08:56:25;;;;;;;0.10;0.10;;;;;;;18.10;56.96;100619.03;5032440;28;20056;-57
2023/12/25 08:58:51;;;;;;;0.10;0.10;;;;;;;18.10;56.94;100613.59;5033770;28;20041;-57
2023/12/25 09:01:16;;;;;;;0.00;0.00;;;;;;;18.04;57.08;100613.31;5032352;28;20033;-57
2023/12/25 09:03:42;;;;;;;0.10;0.10;;;;;;;18.08;57.00;100623.78;5033673;28;20041;-57
2023/12/25 09:06:08;;;;;;;0.00;0.00;;;;;;;18.06;57.21;100620.44;5032015;28;20046;-57
2023/12/25 09:08:34;;;;;;;0.20;0.10;;;;;;;18.05;57.18;100622.28;5033303;28;20037;-57
2023/12/25 09:10:59;;;;;;;0.10;0.10;;;;;;;18.01;56.84;100620.94;5015485;28;20053;-57
2023/12/25 09:13:24;;;;;;;1.50;0.20;;;;;;;18.04;56.92;100616.03;5032014;28;20037;-57
2023/12/25 09:15:50;;;;;;;0.20;0.05;;;;;;;18.04;57.17;100618.72;5031976;28;20026;-57
2023/12/25 09:18:15;;;;;;;0.00;0.00;;;;;;;18.04;56.87;100612.47;5032008;28;20056;-57
2023/12/25 09:20:41;;;;;;;0.32;0.08;;;;;;;18.04;57.10;100613.31;5015436;28;20413;-57
2023/12/25 09:23:06;;;;;;;0.22;0.10;;;;;;;18.07;57.39;100605.81;5033229;28;20033;-57
2023/12/25 09:25:31;;;;;;;0.17;0.10;;;;;;;18.08;57.27;100612.94;5031840;28;20038;-58
2023/12/25 09:27:57;;;;;;;0.00;0.00;;;;;;;18.07;57.21;100613.97;5033024;28;20075;-59
2023/12/25 09:30:22;;;;;;;0.05;0.03;;;;;;;18.02;57.09;100620.78;5031760;28;20040;-56
2023/12/25 09:32:48;;;;;;;0.00;0.00;;;;;;;18.03;57.40;100633.28;5033169;28;20397;-56
2023/12/25 09:35:15;;;;;;;0.05;0.05;;;;;;;17.98;57.30;100630.28;5032919;28;20033;-57
2023/12/25 09:37:41;;;;;;;0.00;0.00;;;;;;;18.01;57.22;100643.47;5031706;28;20072;-59
2023/12/25 09:40:06;;;;;;;0.65;0.10;;;;;;;18.04;57.40;100650.41;5033002;28;20049;-58
2023/12/25 09:42:32;;;;;;;0.20;0.20;;;;;;;18.06;57.78;100650.25;5032973;28;20519;-57
2023/12/25 09:44:57;;;;;;;0.30;0.10;;;;;;;18.08;57.06;100656.31;5032864;28;20545;-58
2023/12/25 09:47:23;;;;;;;0.25;0.10;;;;;;;18.09;56.92;100653.41;5032856;28;20084;-57
2023/12/25 09:49:49;;;;;;;0.25;0.17;;;;;;;18.14;57.30;100656.44;5031671;28;20064;-57
2023/12/25 09:52:16;;;;;;;0.13;0.13;;;;;;;18.20;57.16;100665.72;5033604;28;20061;-57
2023/12/25 09:54:42;;;;;;;0.63;0.28;;;;;;;18.22;56.94;100655.53;5051444;28;20037;-57
2023/12/25 09:57:09;;;;;;;0.05;0.00;;;;;;;18.23;56.80;100670.78;5042110;28;20056;-57
2023/12/25 09:59:35;;;;;;;0.10;0.10;;;;;;;18.23;57.31;100670.78;5032699;28;20059;-57
2023/12/25 10:02:04;;;;;;;0.10;0.10;;;;;;;18.20;57.66;100679.28;5031351;28;20489;-57
2023/12/25 10:04:30;;;;;;;0.25;0.10;;;;;;;18.21;57.07;100673.66;5031288;28;20498;-58
2023/12/25 10:06:56;;;;;;;0.10;0.10;;;;;;;18.18;57.23;100663.16;5031266;28;20116;-58
2023/12/25 10:09:22;;;;;;;0.65;0.20;;;;;;;18.19;57.08;100674.88;5031269;28;20041;-58
2023/12/25 10:11:48;;;;;;;0.52;0.10;;;;;;;18.22;57.07;100661.78;5031253;28;20045;-58
2023/12/25 10:14:13;;;;;;;0.20;0.15;;;;;;;18.21;56.72;100664.66;5032309;28;20515;-58
2023/12/25 10:16:39;;;;;;;0.93;0.32;;;;;;;18.23;57.33;100668.06;5033652;28;20115;-58
2023/12/25 10:19:04;;;;;;;0.10;0.10;;;;;;;18.26;57.28;100664.97;5051177;28;20060;-58
2023/12/25 10:21:43;;;;;;;0.10;0.10;;;;;;;18.28;56.81;100657.50;5051090;28;20143;-58
2023/12/25 10:24:16;;;;;;;0.00;0.00;;;;;;;18.27;57.04;100662.09;5051234;28;20116;-57
2023/12/25 10:26:44;;;;;;;0.75;0.15;;;;;;;18.29;57.06;100667.31;5034420;28;20440;-57
2023/12/25 10:29:09;;;;;;;0.32;0.10;;;;;;;18.31;56.51;100663.41;5051107;28;20063;-58
2023/12/25 10:31:37;;;;;;;0.52;0.25;;;;;;;18.29;56.91;100648.31;5052241;28;20061;-57
2023/12/25 10:34:02;;;;;;;0.03;0.03;;;;;;;18.32;57.30;100653.38;5052288;28;20041;-58
2023/12/25 10:36:28;;;;;;;0.68;0.20;;;;;;;18.38;56.73;100655.38;5052486;28;20035;-57
2023/12/25 10:38:53;;;;;;;0.95;0.22;;;;;;;18.39;56.83;100651.63;5052078;28;20044;-57
2023/12/25 10:41:19;;;;;;;0.43;0.28;;;;;;;18.42;56.63;100657.56;5033052;28;20117;-57
2023/12/25 10:43:55;;;;;;;0.30;0.20;;;;;;;18.41;56.59;100639.56;5030940;28;20412;-57
2023/12/25 10:46:26;;;;;;;1.63;0.20;;;;;;;18.43;57.38;100650.22;5030925;28;20037;-57
2023/12/25 10:48:53;;;;;;;0.00;0.00;;;;;;;18.41;56.87;100631.44;5032099;28;20033;-58
2023/12/25 10:51:25;;;;;;;0.45;0.30;;;;;;;18.45;56.69;100629.22;5035694;28;20041;-57
2023/12/25 10:53:50;;;;;;;0.47;0.47;;;;;;;18.48;56.90;100634.31;5034235;28;20133;-57
2023/12/25 10:56:19;;;;;;;0.65;0.30;;;;;;;18.45;56.67;100643.59;5034482;28;20180;-57
2023/12/25 10:58:47;;;;;;;0.50;0.35;;;;;;;18.43;57.10;100661.06;5034352;28;20505;-57
2023/12/25 11:01:13;;;;;;;2.05;0.52;;;;;;;18.40;56.88;100650.59;5034265;28;20037;-57
2023/12/25 11:03:38;;;;;;;0.20;0.20;;;;;;;18.40;56.87;100650.59;5034400;28;20029;-57
2023/12/25 11:06:05;;;;;;;0.43;0.32;;;;;;;18.40;57.20;100662.28;5034208;28;20511;-58
2023/12/25 11:08:30;;;;;;;0.00;0.00;;;;;;;18.38;57.46;100649.94;5034005;28;20120;-59
2023/12/25 11:10:55;;;;;;;0.57;0.47;;;;;;;18.39;57.15;100649.78;5034275;28;20034;-58
2023/12/25 11:13:21;;;;;;;1.35;0.40;;;;;;;18.41;57.20;100638.72;5035616;28;20029;-57
2023/12/25 11:15:46;;;;;;;0.95;0.30;;;;;;;18.44;57.19;100635.66;5035984;28;20395;-57
2023/12/25 11:18:12;;;;;;;1.20;0.20;;;;;;;18.50;57.06;100638.50;5035582;28;20473;-57